EST,Max TemperatureF,Mean TemperatureF,Min TemperatureF,Max Dew PointF,MeanDew PointF,Min DewpointF,Max Humidity, Mean Humidity, Min Humidity, Max Sea Level PressureIn, Mean Sea Level PressureIn, Min Sea Level PressureIn, Max VisibilityMiles, Mean VisibilityMiles, Min VisibilityMiles, Max Wind SpeedMPH, Mean Wind SpeedMPH, Max Gust SpeedMPH,PrecipitationIn, CloudCover, Events, WindDirDegrees
2012-2-1,66,54,41,48,41,32,82,62,39,30.07,30.03,29.98,10,10,10,15,6,23,0.00,2,,265
2012-2-2,53,47,41,46,40,30,100,76,47,30.31,30.08,29.98,10,10,7,22,6,29,0.04,5,Rain,346
2012-2-3,46,39,32,32,30,28,93,71,53,30.53,30.44,30.36,10,10,10,14,6,20,0.00,0,,349
2012-2-4,41,34,26,34,31,27,100,91,65,30.36,30.25,30.15,10,8,1,10,2,17,0.10,5,Rain-Snow,20
2012-2-5,41,36,32,34,33,30,100,92,70,30.22,30.15,30.09,10,7,2,14,3,18,0.05,7,Snow,356
2012-2-6,51,38,24,32,29,25,100,75,38,30.26,30.17,30.07,10,10,10,10,4,9,0.00,0,,238
2012-2-7,51,43,35,32,31,28,87,58,44,30.18,30.13,30.08,10,10,10,15,8,24,0.00,1,,327
2012-2-8,35,32,30,34,31,28,100,93,81,30.27,30.21,30.14,10,6,0,7,3,,0.03,5,Rain-Snow,17
2012-2-9,42,35,28,32,25,21,100,69,42,30.28,30.22,30.16,10,10,2,16,6,21,0.04,1,,325
2012-2-10,42,35,28,34,27,23,93,72,53,30.20,30.10,29.95,10,10,7,7,3,,0.00,3,,342
2012-2-11,37,30,24,34,27,12,100,84,55,29.91,29.79,29.66,10,6,0,31,7,43,0.10,8,Fog-Rain-Snow,329
2012-2-12,30,24,19,14,12,10,74,58,47,30.12,30.05,29.93,10,10,10,34,21,44,0.00,5,,307
2012-2-13,46,36,26,21,17,14,64,49,34,30.18,30.13,30.07,10,10,10,24,9,31,0.00,0,,283
2012-2-14,51,42,32,34,28,23,87,62,38,30.09,30.02,29.94,10,10,10,12,3,17,0.00,7,,187
2012-2-15,51,42,33,34,32,30,93,68,47,30.30,30.21,30.03,10,10,10,20,7,24,0.00,3,,327
2012-2-16,44,38,33,45,39,32,100,96,81,30.29,30.16,30.03,10,8,4,10,3,,0.22,8,Rain-Thunderstorm,174
2012-2-17,51,45,39,45,34,28,100,70,41,30.12,30.07,30.00,10,9,1,20,7,28,0.00,3,Rain,308
2012-2-18,57,42,28,34,30,27,100,62,38,30.12,30.03,29.88,10,10,10,21,4,30,0.00,0,,244
2012-2-19,41,37,33,28,26,23,75,64,56,30.13,30.03,29.91,10,10,10,16,9,18,0.00,3,,23
2012-2-20,46,39,32,27,23,21,70,58,37,30.34,30.19,29.98,10,10,10,16,10,24,0.00,0,,3
2012-2-21,48,34,21,32,27,21,100,75,54,30.35,30.17,29.93,10,10,7,23,5,31,0.00,1,,183
2012-2-22,60,46,33,37,34,32,93,64,34,29.86,29.75,29.54,10,10,10,18,6,28,0.00,2,Thunderstorm,219
2012-2-23,62,52,41,43,38,32,100,60,34,29.65,29.57,29.47,10,10,10,17,6,23,0.00,2,Rain-Thunderstorm,255
2012-2-24,53,47,41,50,42,28,100,82,41,29.67,29.51,29.39,10,9,4,26,7,43,0.03,6,Rain-Thunderstorm,17
2012-2-25,41,36,32,28,21,16,70,54,39,30.27,29.95,29.69,10,10,10,26,19,46,0.00,5,,294
2012-2-26,46,38,30,25,21,19,70,52,37,30.48,30.41,30.28,10,10,10,16,8,21,0.00,1,,263
2012-2-27,64,44,24,32,28,23,93,59,30,30.40,30.30,30.14,10,10,10,18,5,25,0.00,0,,193
2012-2-28,53,43,33,27,25,23,70,48,30,30.48,30.41,30.29,10,10,10,20,10,31,0.00,0,,358
2012-2-29,48,42,37,48,39,28,100,89,61,30.31,30.01,29.73,10,7,1,18,6,23,1.17,5,Rain-Snow-Thunderstorm,170